createdAt,value
2016-07-22T00:00:28.041Z,1155.58
2016-07-22T00:01:28.057Z,1155.64
2016-07-22T00:02:28.052Z,1155.72
2016-07-22T00:03:28.039Z,1155.8
2016-07-22T00:04:28.055Z,1155.86
2016-07-22T00:05:28.036Z,1155.88
2016-07-22T00:06:28.047Z,1155.93
2016-07-22T00:07:28.057Z,1155.98
2016-07-22T00:08:28.047Z,1156.05
2016-07-22T00:09:28.057Z,1156.07
2016-07-22T00:10:28.053Z,1156.08
2016-07-22T00:11:28.058Z,1156.02
2016-07-22T00:12:28.061Z,1155.99
2016-07-22T00:13:28.048Z,1156.01
2016-07-22T00:14:28.071Z,1156
2016-07-22T00:15:28.055Z,1156.05
2016-07-22T00:16:28.077Z,1156.08
2016-07-22T00:17:28.055Z,1156.05
2016-07-22T00:18:28.085Z,1156.04
2016-07-22T00:19:28.086Z,1156.09
2016-07-22T00:20:28.062Z,1156.06
2016-07-22T00:21:28.088Z,1156.06
2016-07-22T00:22:28.076Z,1156.08
2016-07-22T00:23:28.087Z,1156.13
2016-07-22T00:24:28.064Z,1156.11
2016-07-22T00:25:28.096Z,1156.11
2016-07-22T00:26:28.094Z,1156.13
2016-07-22T00:27:28.100Z,1156.04
2016-07-22T00:28:28.103Z,1156.03
2016-07-22T00:29:28.090Z,1156.01
2016-07-22T00:30:28.072Z,1155.99
2016-07-22T00:31:28.079Z,1155.98
2016-07-22T00:32:28.066Z,1155.9
2016-07-22T00:33:28.076Z,1155.93
2016-07-22T00:34:28.088Z,1155.84
2016-07-22T00:35:28.093Z,1155.73
2016-07-22T00:36:28.093Z,1155.64
2016-07-22T00:37:28.957Z,1155.53
2016-07-22T00:38:28.076Z,1155.33
2016-07-22T00:39:28.074Z,1155.23
2016-07-22T00:40:28.102Z,1155.39
2016-07-22T00:41:28.083Z,1155.05
2016-07-22T00:42:28.091Z,1154.95
2016-07-22T00:43:28.085Z,1154.83
2016-07-22T00:44:28.091Z,1154.73
2016-07-22T00:45:28.091Z,1154.59
2016-07-22T00:46:28.092Z,1154.5
2016-07-22T00:47:28.075Z,1154.45
2016-07-22T00:48:28.088Z,1154.32
2016-07-22T00:49:28.091Z,1154.22
2016-07-22T00:50:28.099Z,1154.2
2016-07-22T00:51:28.092Z,1154.05
2016-07-22T00:52:28.089Z,1154.02
2016-07-22T00:53:28.091Z,1153.95
2016-07-22T00:54:28.093Z,1153.89
2016-07-22T00:55:28.093Z,1153.73
2016-07-22T00:56:28.105Z,1153.7
2016-07-22T00:57:28.117Z,1153.61
2016-07-22T00:58:28.108Z,1153.56
2016-07-22T00:59:28.125Z,1153.45
2016-07-22T01:00:28.125Z,1153.39
2016-07-22T01:01:28.104Z,1153.23
2016-07-22T01:02:28.099Z,1153.29
2016-07-22T01:03:28.131Z,1153.16
2016-07-22T01:04:28.127Z,1153.11
2016-07-22T01:05:28.123Z,1153.06
2016-07-22T01:06:28.125Z,1153.08
2016-07-22T01:07:28.131Z,1153
2016-07-22T01:08:28.106Z,1152.96
2016-07-22T01:09:28.124Z,1152.94
2016-07-22T01:10:28.119Z,1152.96
2016-07-22T01:11:28.107Z,1152.94
2016-07-22T01:12:28.101Z,1152.89
2016-07-22T01:13:28.104Z,1152.83
2016-07-22T01:14:28.125Z,1152.79
2016-07-22T01:15:28.128Z,1152.83
2016-07-22T01:16:28.123Z,1152.78
2016-07-22T01:17:28.115Z,1152.81
2016-07-22T01:18:28.106Z,1152.75
2016-07-22T01:19:28.113Z,1153.02
2016-07-22T01:20:28.118Z,1152.7
2016-07-22T01:21:28.128Z,1152.67
2016-07-22T01:22:28.150Z,1152.71
2016-07-22T01:23:28.132Z,1152.59
2016-07-22T01:24:28.131Z,1152.63
2016-07-22T01:25:28.140Z,1152.67
2016-07-22T01:26:28.142Z,1152.61
2016-07-22T01:27:28.125Z,1152.59
2016-07-22T01:28:28.131Z,1152.63
2016-07-22T01:29:28.154Z,1152.55
2016-07-22T01:30:28.145Z,1152.52
2016-07-22T01:31:28.153Z,1152.48
2016-07-22T01:32:28.139Z,1152.47
2016-07-22T01:33:28.151Z,1152.43
2016-07-22T01:34:28.131Z,1152.43
2016-07-22T01:35:28.131Z,1152.39
2016-07-22T01:36:28.136Z,1152.32
2016-07-22T01:37:28.163Z,1152.31
2016-07-22T01:38:28.143Z,1152.23
2016-07-22T01:39:28.155Z,1152.23
2016-07-22T01:40:28.123Z,1152.15
2016-07-22T01:41:28.143Z,1152.16
2016-07-22T01:42:28.165Z,1152.1
2016-07-22T01:43:28.159Z,1152.16
2016-07-22T01:44:28.156Z,1152.11
2016-07-22T01:45:28.144Z,1152.03
2016-07-22T01:46:28.155Z,1152.1
2016-07-22T01:47:28.139Z,1152.11
2016-07-22T01:48:28.143Z,1152.16
2016-07-22T01:49:28.170Z,1152.24
2016-07-22T01:50:28.159Z,1152.23
2016-07-22T01:51:28.731Z,1152.29
2016-07-22T01:52:28.161Z,1152.31
2016-07-22T01:53:28.173Z,1152.34
2016-07-22T01:54:28.160Z,1152.38
2016-07-22T01:55:28.156Z,1152.5
2016-07-22T01:56:28.163Z,1152.53
2016-07-22T01:57:28.155Z,1152.57
2016-07-22T01:58:28.169Z,1152.66
2016-07-22T01:59:28.174Z,1152.73
2016-07-22T02:00:28.155Z,1152.81
2016-07-22T02:01:28.164Z,1152.83
2016-07-22T02:02:28.196Z,1152.94
2016-07-22T02:03:28.162Z,1152.99
2016-07-22T02:04:28.161Z,1153.1
2016-07-22T02:05:28.161Z,1153.2
2016-07-22T02:06:28.186Z,1153.32
2016-07-22T02:07:28.159Z,1153.25
2016-07-22T02:08:28.166Z,1153.38
2016-07-22T02:09:28.162Z,1153.46
2016-07-22T02:10:28.167Z,1153.55
2016-07-22T02:11:28.160Z,1153.62
2016-07-22T02:12:28.166Z,1153.7
2016-07-22T02:13:28.173Z,1153.76
2016-07-22T02:14:28.168Z,1153.84
2016-07-22T02:15:28.174Z,1153.9
2016-07-22T02:16:28.166Z,1154.02
2016-07-22T02:17:28.188Z,1154.09
2016-07-22T02:18:28.185Z,1154.13
2016-07-22T02:19:28.175Z,1154.14
2016-07-22T02:20:28.183Z,1154.43
2016-07-22T02:21:28.189Z,1154.32
2016-07-22T02:22:28.203Z,1154.43
2016-07-22T02:23:28.192Z,1154.43
2016-07-22T02:24:28.198Z,1154.55
2016-07-22T02:25:28.193Z,1154.5
2016-07-22T02:26:28.191Z,1154.6
2016-07-22T02:27:28.193Z,1154.63
2016-07-22T02:28:28.197Z,1154.66
2016-07-22T02:29:28.196Z,1154.68
2016-07-22T02:30:28.178Z,1154.74
2016-07-22T02:31:28.193Z,1154.79
2016-07-22T02:32:28.206Z,1154.79
2016-07-22T02:33:28.204Z,1154.85
2016-07-22T02:34:28.196Z,1154.84
2016-07-22T02:35:28.188Z,1154.85
2016-07-22T02:36:28.196Z,1154.9
2016-07-22T02:37:28.219Z,1154.91
2016-07-22T02:38:28.235Z,1154.94
2016-07-22T02:39:28.217Z,1155
2016-07-22T02:40:28.221Z,1155.01
2016-07-22T02:41:28.191Z,1155.04
2016-07-22T02:42:28.201Z,1155.04
2016-07-22T02:43:28.216Z,1155.04
2016-07-22T02:44:28.198Z,1155.08
2016-07-22T02:45:28.207Z,1155.07
2016-07-22T02:46:28.215Z,1155.07
2016-07-22T02:47:28.214Z,1155.06
2016-07-22T02:48:28.222Z,1155.04
2016-07-22T02:49:28.220Z,1155.12
2016-07-22T02:50:28.203Z,1155.1
2016-07-22T02:51:28.211Z,1155.15
2016-07-22T02:52:28.892Z,1155.18
2016-07-22T02:53:28.212Z,1155.15
2016-07-22T02:54:28.218Z,1155.18
2016-07-22T02:55:28.223Z,1155.17
2016-07-22T02:56:28.211Z,1155.18
2016-07-22T02:57:28.217Z,1155.15
2016-07-22T02:58:28.218Z,1155.17
2016-07-22T02:59:28.211Z,1155.18
2016-07-22T03:00:28.214Z,1155.17
2016-07-22T03:01:28.216Z,1155.14
2016-07-22T03:02:28.205Z,1155.15
2016-07-22T03:03:28.212Z,1155.08
2016-07-22T03:04:28.214Z,1155.03
2016-07-22T03:05:28.214Z,1154.97
2016-07-22T03:06:28.224Z,1154.95
2016-07-22T03:07:28.217Z,1154.91
2016-07-22T03:08:28.225Z,1154.92
2016-07-22T03:09:28.223Z,1154.94
2016-07-22T03:10:28.228Z,1154.94
2016-07-22T03:11:28.224Z,1154.93
2016-07-22T03:12:28.251Z,1154.99
2016-07-22T03:13:28.219Z,1155.01
2016-07-22T03:14:28.225Z,1155.05
2016-07-22T03:15:28.242Z,1155.12
2016-07-22T03:16:28.246Z,1155.1
2016-07-22T03:17:28.225Z,1155.16
2016-07-22T03:18:28.223Z,1155.25
2016-07-22T03:19:28.242Z,1155.36
2016-07-22T03:20:28.245Z,1155.43
2016-07-22T03:21:28.244Z,1155.51
2016-07-22T03:22:28.234Z,1155.68
2016-07-22T03:23:28.236Z,1155.76
2016-07-22T03:24:28.257Z,1155.88
2016-07-22T03:25:28.235Z,1155.92
2016-07-22T03:26:28.250Z,1156.03
2016-07-22T03:27:28.251Z,1156.17
2016-07-22T03:28:28.254Z,1156.24
2016-07-22T03:29:28.235Z,1156.35
2016-07-22T03:30:28.242Z,1156.51
2016-07-22T03:31:28.249Z,1156.62
2016-07-22T03:32:28.238Z,1156.71
2016-07-22T03:33:28.247Z,1156.8
2016-07-22T03:34:28.241Z,1156.84
2016-07-22T03:35:28.251Z,1156.95
2016-07-22T03:36:28.252Z,1157.01
2016-07-22T03:37:28.252Z,1157.12
2016-07-22T03:38:28.252Z,1157.21
2016-07-22T03:39:28.253Z,1157.22
2016-07-22T03:40:28.246Z,1157.23
2016-07-22T03:41:28.258Z,1157.31
2016-07-22T03:42:28.250Z,1157.3
2016-07-22T03:43:28.254Z,1157.31
2016-07-22T03:44:28.286Z,1157.34
2016-07-22T03:45:28.261Z,1157.33
2016-07-22T03:46:28.253Z,1157.28
2016-07-22T03:47:28.257Z,1157.3
2016-07-22T03:48:28.255Z,1157.3
2016-07-22T03:49:28.254Z,1157.31
2016-07-22T03:50:28.265Z,1157.34
2016-07-22T03:51:28.276Z,1157.4
2016-07-22T03:52:28.257Z,1157.36
2016-07-22T03:53:28.263Z,1157.42
2016-07-22T03:54:28.280Z,1157.39
2016-07-22T03:55:28.267Z,1157.44
2016-07-22T03:56:28.282Z,1157.46
2016-07-22T03:57:28.267Z,1157.47
2016-07-22T03:58:28.276Z,1157.46
2016-07-22T03:59:28.273Z,1157.43
2016-07-22T04:00:28.282Z,1157.38
2016-07-22T04:01:28.282Z,1157.34
2016-07-22T04:02:28.275Z,1157.26
2016-07-22T04:03:28.263Z,1157.25
2016-07-22T04:04:28.267Z,1157.18
2016-07-22T04:05:28.281Z,1157.17
2016-07-22T04:06:28.279Z,1157.11
2016-07-22T04:07:28.280Z,1157.07
2016-07-22T04:08:28.269Z,1157
2016-07-22T04:09:28.268Z,1156.94
2016-07-22T04:10:28.275Z,1156.81
2016-07-22T04:11:28.282Z,1156.69
2016-07-22T04:12:28.270Z,1156.56
2016-07-22T04:13:28.283Z,1156.41
2016-07-22T04:14:28.276Z,1156.15
2016-07-22T04:15:28.287Z,1155.97
2016-07-22T04:16:28.285Z,1155.78
2016-07-22T04:17:28.292Z,1155.54
2016-07-22T04:18:28.283Z,1155.27
2016-07-22T04:19:28.283Z,1154.98
2016-07-22T04:20:28.290Z,1154.67
2016-07-22T04:21:28.282Z,1154.33
2016-07-22T04:22:28.286Z,1153.95
2016-07-22T04:23:28.311Z,1153.58
2016-07-22T04:24:28.282Z,1153.25
2016-07-22T04:25:28.306Z,1152.71
2016-07-22T04:26:28.315Z,1152.29
2016-07-22T04:27:28.292Z,1151.8
2016-07-22T04:28:28.313Z,1151.33
2016-07-22T04:29:28.305Z,1150.81
2016-07-22T04:30:28.374Z,1150.3
2016-07-22T04:31:28.330Z,1149.65
2016-07-22T04:32:28.337Z,1148.99
2016-07-22T04:33:28.314Z,1148.42
2016-07-22T04:34:28.314Z,1147.82
2016-07-22T04:35:28.312Z,1147.18
2016-07-22T04:36:28.301Z,1146.53
2016-07-22T04:37:28.314Z,1145.82
2016-07-22T04:38:28.313Z,1145.35
2016-07-22T04:39:28.313Z,1144.72
2016-07-22T04:40:28.319Z,1143.95
2016-07-22T04:41:28.319Z,1143.25
2016-07-22T04:42:28.312Z,1142.62
2016-07-22T04:43:28.314Z,1141.86
2016-07-22T04:44:28.323Z,1141.22
2016-07-22T04:45:28.316Z,1140.39
2016-07-22T04:46:28.319Z,1139.88
2016-07-22T04:47:28.316Z,1139.05
2016-07-22T04:48:28.313Z,1138.46
2016-07-22T04:49:28.329Z,1137.66
2016-07-22T04:50:28.321Z,1136.75
2016-07-22T04:51:28.321Z,1136.09
2016-07-22T04:52:28.322Z,1135.02
2016-07-22T04:53:28.315Z,1134.25
2016-07-22T04:54:28.319Z,1133.25
2016-07-22T04:55:28.318Z,1132.4
2016-07-22T04:56:28.327Z,1131.39
2016-07-22T04:57:28.318Z,1130.33
2016-07-22T04:58:28.325Z,1129.32
2016-07-22T04:59:28.339Z,1128.52
2016-07-22T05:00:28.347Z,1127.68
2016-07-22T05:01:28.331Z,1126.6
2016-07-22T05:02:28.353Z,1125.72
2016-07-22T05:03:28.322Z,1124.75
2016-07-22T05:04:28.330Z,1123.89
2016-07-22T05:05:28.343Z,1122.95
2016-07-22T05:06:28.345Z,1122.17
2016-07-22T05:07:28.347Z,1121.18
2016-07-22T05:08:28.340Z,1120.22
2016-07-22T05:09:28.347Z,1119.06
2016-07-22T05:10:28.332Z,1118.06
2016-07-22T05:11:28.350Z,1117.27
2016-07-22T05:12:28.349Z,1116.32
2016-07-22T05:13:28.343Z,1115.62
2016-07-22T05:14:28.350Z,1114.9
2016-07-22T05:15:28.346Z,1114.21
2016-07-22T05:16:28.345Z,1113.62
2016-07-22T05:17:28.354Z,1113.12
2016-07-22T05:18:28.366Z,1112.66
2016-07-22T05:19:28.511Z,1112.29
2016-07-22T05:20:28.348Z,1111.75
2016-07-22T05:21:28.347Z,1111.65
2016-07-22T05:22:28.348Z,1111.06
2016-07-22T05:23:28.349Z,1110.32
2016-07-22T05:24:28.348Z,1109.82
2016-07-22T05:25:28.346Z,1109.27
2016-07-22T05:26:28.348Z,1108.82
2016-07-22T05:27:28.382Z,1108.11
2016-07-22T05:28:28.346Z,1107.37
2016-07-22T05:29:28.354Z,1106.84
2016-07-22T05:30:28.379Z,1106.08
2016-07-22T05:31:28.351Z,1105.35
2016-07-22T05:32:28.360Z,1104.42
2016-07-22T05:33:28.368Z,1103.53
2016-07-22T05:34:28.379Z,1102.27
2016-07-22T05:35:28.366Z,1101.29
2016-07-22T05:36:28.357Z,1100.24
2016-07-22T05:37:28.374Z,1099.33
2016-07-22T05:38:28.359Z,1098.27
2016-07-22T05:39:28.377Z,1097.22
2016-07-22T05:40:28.380Z,1095.92
2016-07-22T05:41:28.368Z,1094.99
2016-07-22T05:42:28.360Z,1093.46
2016-07-22T05:43:28.368Z,1092.22
2016-07-22T05:44:28.380Z,1091.02
2016-07-22T05:45:28.376Z,1089.9
2016-07-22T05:46:28.372Z,1089.06
2016-07-22T05:47:28.530Z,1087.85
2016-07-22T05:48:28.376Z,1086.75
2016-07-22T05:49:28.381Z,1085.77
2016-07-22T05:50:28.378Z,1085.38
2016-07-22T05:51:28.378Z,1084.51
2016-07-22T05:52:28.403Z,1083.59
2016-07-22T05:53:28.374Z,1082.73
2016-07-22T05:54:28.380Z,1081.66
2016-07-22T05:55:28.375Z,1080.6
2016-07-22T05:56:28.379Z,1079.78
2016-07-22T05:57:28.380Z,1078.84
2016-07-22T05:58:28.373Z,1077.95
2016-07-22T05:59:28.392Z,1077.12
2016-07-22T06:00:28.388Z,1075.71
2016-07-22T06:01:28.382Z,1074.58
2016-07-22T06:02:28.410Z,1073.72
2016-07-22T06:03:28.385Z,1072.62
2016-07-22T06:04:28.395Z,1071.11
2016-07-22T06:05:28.386Z,1069.97
2016-07-22T06:06:28.397Z,1068.71
2016-07-22T06:07:28.400Z,1067.45
2016-07-22T06:08:28.409Z,1066.14
2016-07-22T06:09:28.409Z,1065.25
2016-07-22T06:10:28.389Z,1064.24
2016-07-22T06:11:28.395Z,1063.47
2016-07-22T06:12:28.399Z,1063.02
2016-07-22T06:13:28.390Z,1062.78
2016-07-22T06:14:28.408Z,1062.64
2016-07-22T06:15:28.405Z,1063.16
2016-07-22T06:16:28.411Z,1063.26
2016-07-22T06:17:28.398Z,1063.49
2016-07-22T06:18:28.411Z,1063.51
2016-07-22T06:19:28.411Z,1063.5
2016-07-22T06:20:28.412Z,1063.19
2016-07-22T06:21:28.412Z,1063.27
2016-07-22T06:22:28.420Z,1062.76
2016-07-22T06:23:28.412Z,1061.52
2016-07-22T06:24:28.413Z,1060.4
2016-07-22T06:25:28.423Z,1058.62
2016-07-22T06:26:28.416Z,1056.96
2016-07-22T06:27:28.422Z,1055.37
2016-07-22T06:28:28.416Z,1053.39
2016-07-22T06:29:28.417Z,1052.1
2016-07-22T06:30:28.412Z,1050.23
2016-07-22T06:31:28.419Z,1048.84
2016-07-22T06:32:28.428Z,1046.95
2016-07-22T06:33:28.417Z,1045.61
2016-07-22T06:34:28.424Z,1044.82
2016-07-22T06:35:28.430Z,1044.17
2016-07-22T06:36:28.443Z,1044.09
2016-07-22T06:37:28.430Z,1043.59
2016-07-22T06:38:28.446Z,1043.53
2016-07-22T06:39:28.447Z,1043.04
2016-07-22T06:40:28.438Z,1041.86
2016-07-22T06:41:28.433Z,1040.43
2016-07-22T06:42:28.429Z,1039.07
2016-07-22T06:43:28.439Z,1037.69
2016-07-22T06:44:28.454Z,1036.57
2016-07-22T06:45:28.428Z,1035.2
2016-07-22T06:46:28.427Z,1033.84
2016-07-22T06:47:28.499Z,1032.4
2016-07-22T06:48:28.440Z,1030.89
2016-07-22T06:49:28.441Z,1029.85
2016-07-22T06:50:28.443Z,1029.31
2016-07-22T06:51:28.448Z,1028.79
2016-07-22T06:52:28.444Z,1027.84
2016-07-22T06:53:28.451Z,1027.07
2016-07-22T06:54:28.442Z,1026.43
2016-07-22T06:55:28.444Z,1025.78
2016-07-22T06:56:28.454Z,1025.55
2016-07-22T06:57:28.447Z,1026.21
2016-07-22T06:58:28.478Z,1027.45
2016-07-22T06:59:28.474Z,1029.48
2016-07-22T07:00:28.448Z,1031.5
2016-07-22T07:01:28.473Z,1034.61
2016-07-22T07:02:28.465Z,1037.69
2016-07-22T07:03:28.473Z,1039.51
2016-07-22T07:04:28.449Z,1041.56
2016-07-22T07:05:28.471Z,1043.04
2016-07-22T07:06:28.445Z,1044.14
2016-07-22T07:07:28.468Z,1044.77
2016-07-22T07:08:28.468Z,1046.2
2016-07-22T07:09:28.485Z,1047.52
2016-07-22T07:10:28.461Z,1050.26
2016-07-22T07:11:28.475Z,1053.28
2016-07-22T07:12:28.466Z,1056.96
2016-07-22T07:13:28.474Z,1060.34
2016-07-22T07:14:28.461Z,1062.82
2016-07-22T07:15:29.023Z,1064.86
2016-07-22T07:16:28.474Z,1066.4
2016-07-22T07:17:28.471Z,1067.62
2016-07-22T07:18:28.474Z,1068.44
2016-07-22T07:19:28.464Z,1068.27
2016-07-22T07:20:28.476Z,1067.97
2016-07-22T07:21:28.460Z,1067.23
2016-07-22T07:22:28.469Z,1064.6
2016-07-22T07:23:28.478Z,1059.96
2016-07-22T07:24:28.465Z,1053.71
2016-07-22T07:25:28.475Z,1046.51
2016-07-22T07:26:28.479Z,1039.22
2016-07-22T07:27:28.483Z,1032.49
2016-07-22T07:28:28.476Z,1025.43
2016-07-22T07:29:28.483Z,1021.12
2016-07-22T07:30:28.480Z,1017.79
2016-07-22T07:31:28.485Z,1014.52
2016-07-22T07:32:28.482Z,1012.41
2016-07-22T07:33:28.506Z,1009.4
2016-07-22T07:34:28.497Z,1004.78
2016-07-22T07:35:28.506Z,998.06
2016-07-22T07:36:28.517Z,992.28
2016-07-22T07:37:28.489Z,981.27
2016-07-22T07:38:28.495Z,968.9
2016-07-22T07:39:28.520Z,958.08
2016-07-22T07:40:28.482Z,950.22
2016-07-22T07:41:28.504Z,944.8
2016-07-22T07:42:28.507Z,937.71
2016-07-22T07:43:28.514Z,930.45
2016-07-22T07:44:28.490Z,924.27
2016-07-22T07:45:28.498Z,921.72
2016-07-22T07:46:35.293Z,918.1
2016-07-22T07:47:30.634Z,914.79
2016-07-22T07:48:38.814Z,911.66
2016-07-22T07:49:49.006Z,907.35
2016-07-22T07:50:41.043Z,904.14
2016-07-22T07:51:40.753Z,902.37
2016-07-22T07:52:40.507Z,904.35
2016-07-22T07:53:39.543Z,906.11
2016-07-22T07:54:38.593Z,907.76
2016-07-22T07:55:38.628Z,909.41
2016-07-22T07:56:38.609Z,911.27
2016-07-22T07:57:38.598Z,912.94
2016-07-22T07:58:38.618Z,913.79
2016-07-22T07:59:38.724Z,913.28
2016-07-22T08:00:38.600Z,911.22
2016-07-22T08:01:38.610Z,909.94
2016-07-22T08:02:38.666Z,908.92
2016-07-22T08:03:38.613Z,909.18
2016-07-22T08:04:38.647Z,910.89
2016-07-22T08:05:48.835Z,913.43
2016-07-22T08:06:54.538Z,915.21
2016-07-22T08:08:05.384Z,915.66
2016-07-22T08:09:05.047Z,914.51
2016-07-22T08:09:56.754Z,915.29
2016-07-22T08:10:56.773Z,913.26
2016-07-22T08:12:10.161Z,913.74
2016-07-22T08:13:38.031Z,916.83
2016-07-22T08:15:03.554Z,919.49
2016-07-22T08:16:32.289Z,923.17
2016-07-22T08:17:54.934Z,927.13
2016-07-22T08:19:17.321Z,931.87
2016-07-22T08:20:41.529Z,939.78
2016-07-22T08:22:01.071Z,948.47
2016-07-22T08:22:49.272Z,953.89
2016-07-22T08:23:55.961Z,958.71
2016-07-22T08:24:58.433Z,958.9
2016-07-22T08:26:02.664Z,959.65
2016-07-22T08:27:08.145Z,957.18
2016-07-22T08:28:01.287Z,952.65
2016-07-22T08:29:01.278Z,947.79
2016-07-22T08:30:01.284Z,942.99
2016-07-22T08:31:01.266Z,942.61
2016-07-22T08:32:01.299Z,942.62
2016-07-22T08:33:01.297Z,942.33
2016-07-22T08:34:01.316Z,942.3
2016-07-22T08:35:01.299Z,940.67
2016-07-22T08:36:01.309Z,940
2016-07-22T08:37:01.288Z,941.42
2016-07-22T08:38:01.299Z,941.62
2016-07-22T08:39:01.303Z,939.68
2016-07-22T08:40:01.291Z,937.32
2016-07-22T08:41:01.301Z,937.75
2016-07-22T08:42:01.295Z,941.47
2016-07-22T08:43:01.331Z,946.95
2016-07-22T08:44:01.308Z,952.64
2016-07-22T08:45:01.303Z,954.41
2016-07-22T08:46:01.297Z,953.17
2016-07-22T08:47:01.304Z,953.42
2016-07-22T08:48:01.321Z,955.78
2016-07-22T08:49:01.346Z,957.86
2016-07-22T08:50:01.322Z,956.68
2016-07-22T08:51:01.315Z,953.53
2016-07-22T08:52:01.304Z,950.3
2016-07-22T08:53:01.310Z,947.45
2016-07-22T08:54:01.306Z,946.69
2016-07-22T08:55:01.303Z,945.59
2016-07-22T08:56:01.300Z,945.55
2016-07-22T08:57:01.303Z,944.94
2016-07-22T08:58:01.310Z,940.32
2016-07-22T08:59:01.309Z,935.66
2016-07-22T09:00:01.375Z,934.3
2016-07-22T09:01:01.331Z,932.56
2016-07-22T09:02:01.331Z,928.38
2016-07-22T09:03:01.344Z,925.73
2016-07-22T09:04:01.331Z,923.44
2016-07-22T09:05:01.334Z,920.21
2016-07-22T09:06:01.314Z,918.73
2016-07-22T09:07:01.326Z,917.71
2016-07-22T09:08:01.330Z,914.92
2016-07-22T09:09:01.323Z,913.54
2016-07-22T09:10:01.331Z,913.46
2016-07-22T09:11:01.321Z,914.16
2016-07-22T09:12:01.325Z,913.01
2016-07-22T09:13:01.332Z,911.08
2016-07-22T09:14:01.341Z,911.22
2016-07-22T09:15:01.335Z,907.71
2016-07-22T09:16:01.328Z,904.55
2016-07-22T09:17:01.322Z,899.59
2016-07-22T09:18:01.341Z,893.07
2016-07-22T09:19:01.363Z,887.83
2016-07-22T09:20:01.334Z,884.84
2016-07-22T09:21:01.338Z,878.27
2016-07-22T09:22:01.403Z,872.7
2016-07-22T09:23:01.362Z,868.28
2016-07-22T09:24:01.361Z,862.67
2016-07-22T09:25:01.336Z,854.16
2016-07-22T09:26:01.364Z,845.43
2016-07-22T09:27:01.357Z,835.3
2016-07-22T09:28:01.339Z,825.34
2016-07-22T09:29:01.355Z,815.55
2016-07-22T09:30:01.343Z,804.37
2016-07-22T09:31:01.344Z,792.78
2016-07-22T09:32:01.351Z,781.85
2016-07-22T09:33:01.389Z,776.43
2016-07-22T09:34:01.356Z,768.27
2016-07-22T09:35:01.353Z,760.81
2016-07-22T09:36:01.356Z,756.07
2016-07-22T09:37:01.363Z,755.78
2016-07-22T09:38:01.362Z,757.72
2016-07-22T09:39:01.362Z,759.9
2016-07-22T09:40:01.354Z,760.52
2016-07-22T09:41:01.359Z,761.71
2016-07-22T09:42:01.352Z,765.21
2016-07-22T09:43:01.355Z,773.4
2016-07-22T09:44:01.368Z,786.84
2016-07-22T09:45:01.363Z,803.33
2016-07-22T09:46:01.372Z,819.46
2016-07-22T09:47:01.363Z,834.73
2016-07-22T09:48:01.388Z,848.72
2016-07-22T09:49:01.376Z,863.33
2016-07-22T09:50:01.362Z,878.19
2016-07-22T09:51:01.365Z,895.77
2016-07-22T09:52:01.378Z,913.39
2016-07-22T09:53:01.370Z,928.95
2016-07-22T09:54:01.378Z,945.29
2016-07-22T09:55:01.393Z,959.85
2016-07-22T09:56:01.390Z,973.52
2016-07-22T09:57:01.396Z,986.43
2016-07-22T09:58:01.370Z,998.33
2016-07-22T09:59:01.398Z,1007.97
2016-07-22T10:00:01.385Z,1018.39
2016-07-22T10:01:01.382Z,1026.86
2016-07-22T10:02:01.392Z,1034.99
2016-07-22T10:03:01.385Z,1043.15
2016-07-22T10:04:01.424Z,1049.9
2016-07-22T10:05:01.397Z,1056.06
2016-07-22T10:06:01.385Z,1060.84
2016-07-22T10:07:01.376Z,1066.35
2016-07-22T10:08:01.395Z,1072.99
2016-07-22T10:09:01.393Z,1078.61
2016-07-22T10:10:01.389Z,1082.95
2016-07-22T10:11:01.400Z,1086.3
2016-07-22T10:12:01.394Z,1089.34
2016-07-22T10:13:01.384Z,1091.76
2016-07-22T10:14:01.404Z,1094.53
2016-07-22T10:15:01.382Z,1097.09
2016-07-22T10:16:01.392Z,1099.6
2016-07-22T10:17:01.396Z,1102.37
2016-07-22T10:18:01.399Z,1105.06
2016-07-22T10:19:01.400Z,1107.54
2016-07-22T10:20:01.399Z,1109.94
2016-07-22T10:21:01.402Z,1111.69
2016-07-22T10:22:01.404Z,1112.72
2016-07-22T10:23:01.404Z,1112.36
2016-07-22T10:24:01.403Z,1110.63
2016-07-22T10:25:01.402Z,1108.37
2016-07-22T10:26:01.399Z,1106.49
2016-07-22T10:27:01.413Z,1105.42
2016-07-22T10:28:01.403Z,1105.23
2016-07-22T10:29:01.425Z,1105.39
2016-07-22T10:30:01.426Z,1105.74
2016-07-22T10:31:01.414Z,1105.95
2016-07-22T10:32:01.433Z,1107.26
2016-07-22T10:33:01.429Z,1108.28
2016-07-22T10:34:01.402Z,1108.83
2016-07-22T10:35:01.440Z,1108.88
2016-07-22T10:36:01.410Z,1108.09
2016-07-22T10:37:01.427Z,1107.13
2016-07-22T10:38:01.417Z,1105.65
2016-07-22T10:39:01.420Z,1105.07
2016-07-22T10:40:01.416Z,1105.9
2016-07-22T10:41:01.418Z,1108.92
2016-07-22T10:42:01.444Z,1112.55
2016-07-22T10:43:01.422Z,1115.97
2016-07-22T10:44:01.424Z,1119.66
2016-07-22T10:45:01.466Z,1122.19
2016-07-22T10:46:01.431Z,1123.85
2016-07-22T10:47:01.421Z,1124.99
2016-07-22T10:48:01.424Z,1125.33
2016-07-22T10:49:01.435Z,1126.27
2016-07-22T10:50:01.428Z,1128.27
2016-07-22T10:51:01.435Z,1129.26
2016-07-22T10:52:01.425Z,1130.76
2016-07-22T10:53:01.424Z,1131.66
2016-07-22T10:54:01.431Z,1132.25
2016-07-22T10:55:01.429Z,1133.08
2016-07-22T10:56:01.442Z,1134.24
2016-07-22T10:57:01.442Z,1135.14
2016-07-22T10:58:01.448Z,1136.33
2016-07-22T10:59:01.443Z,1137.66
2016-07-22T11:00:01.434Z,1139.42
2016-07-22T11:01:01.438Z,1140.26
2016-07-22T11:02:01.447Z,1140.66
2016-07-22T11:03:01.443Z,1140.29
2016-07-22T11:04:01.449Z,1139.82
2016-07-22T11:05:01.449Z,1139.05
2016-07-22T11:06:01.441Z,1138.34
2016-07-22T11:07:01.458Z,1137
2016-07-22T11:08:01.447Z,1134.82
2016-07-22T11:09:01.445Z,1131.43
2016-07-22T11:10:01.444Z,1126.4
2016-07-22T11:11:01.438Z,1119.51
2016-07-22T11:12:01.458Z,1111.63
2016-07-22T11:13:01.441Z,1103.79
2016-07-22T11:14:01.453Z,1097.15
2016-07-22T11:15:01.480Z,1090.46
2016-07-22T11:16:01.458Z,1083.56
2016-07-22T11:17:01.457Z,1076.18
2016-07-22T11:18:01.450Z,1068.04
2016-07-22T11:19:01.458Z,1060.07
2016-07-22T11:20:01.458Z,1055.23
2016-07-22T11:21:01.459Z,1052.05
2016-07-22T11:22:01.449Z,1053.2
2016-07-22T11:23:01.624Z,1056.65
2016-07-22T11:24:01.467Z,1059.65
2016-07-22T11:25:01.477Z,1062.3
2016-07-22T11:26:01.466Z,1063.73
2016-07-22T11:27:01.485Z,1066.25
2016-07-22T11:28:01.468Z,1069.89
2016-07-22T11:29:01.509Z,1072.63
2016-07-22T11:30:01.520Z,1075.91
2016-07-22T11:31:01.534Z,1077.47
2016-07-22T11:32:01.476Z,1079.38
2016-07-22T11:33:01.548Z,1080.89
2016-07-22T11:34:01.509Z,1081.62
2016-07-22T11:35:01.488Z,1082.09
2016-07-22T11:36:01.492Z,1083.04
2016-07-22T11:37:01.518Z,1083.78
2016-07-22T11:38:01.483Z,1083.32
2016-07-22T11:39:01.487Z,1082.92
2016-07-22T11:40:01.508Z,1081.23
2016-07-22T11:41:01.503Z,1079.3
2016-07-22T11:42:01.485Z,1076.45
2016-07-22T11:43:01.504Z,1071.76
2016-07-22T11:44:01.496Z,1065.97
2016-07-22T11:45:01.611Z,1059.77
2016-07-22T11:46:01.479Z,1054.56
2016-07-22T11:47:01.494Z,1052.52
2016-07-22T11:48:01.490Z,1050.27
2016-07-22T11:49:01.483Z,1047.79
2016-07-22T11:50:01.496Z,1047.66
2016-07-22T11:51:01.494Z,1047.94
2016-07-22T11:52:01.500Z,1047.62
2016-07-22T11:53:01.504Z,1047.92
2016-07-22T11:54:01.490Z,1048.58
2016-07-22T11:55:01.502Z,1050.11
2016-07-22T11:56:01.504Z,1050.12
2016-07-22T11:57:01.499Z,1048.41
2016-07-22T11:58:01.528Z,1046.41
2016-07-22T11:59:01.584Z,1044.96
2016-07-22T12:00:02.096Z,1042.65
2016-07-22T12:01:01.556Z,1038.84
2016-07-22T12:02:01.571Z,1033.42
2016-07-22T12:03:01.620Z,1028.54
2016-07-22T12:04:01.532Z,1022.03
2016-07-22T12:05:01.519Z,1018.01
2016-07-22T12:06:01.522Z,1016.6
2016-07-22T12:07:01.520Z,1012.85
2016-07-22T12:08:01.538Z,1009.19
2016-07-22T12:09:02.501Z,1004.46
2016-07-22T12:10:01.632Z,1001.97
2016-07-22T12:11:01.526Z,999.38
2016-07-22T12:12:01.521Z,996.44
2016-07-22T12:13:01.518Z,995.84
2016-07-22T12:14:01.556Z,993.87
2016-07-22T12:15:01.520Z,993.02
2016-07-22T12:16:01.524Z,993.91